Time;durP1;ratioP1;P1;durP2;ratioP2;P2;SDS_P1;SDS_P2;PMS_P1;PMS_P2;Temp;Humidity;BMP_temperature;BMP_pressure;BME280_temperature;BME280_humidity;BME280_pressure;Samples;Min_cycle;Max_cycle;Signal;HPM_P1;HPM_P2
2022/04/03 00:00:34;;;;;;;18.00;12.50;;;;;;;;;;4964135;28;20213;-69
2022/04/03 00:03:00;;;;;;;19.98;11.95;;;;;;;;;;4965428;28;20034;-68
2022/04/03 00:05:27;;;;;;;19.63;12.95;;;;;;;;;;4964026;28;20645;-68
2022/04/03 00:07:54;;;;;;;17.98;12.75;;;;;;;;;;4964815;28;20038;-68
2022/04/03 00:10:20;;;;;;;14.25;10.60;;;;;;;;;;4965016;28;20039;-67
2022/04/03 00:12:46;;;;;;;18.08;11.80;;;;;;;;;;4964682;28;20027;-68
2022/04/03 00:15:13;;;;;;;18.65;11.98;;;;;;;;;;4964093;28;20129;-68
2022/04/03 00:17:39;;;;;;;15.10;11.63;;;;;;;;;;4964937;28;20027;-68
2022/04/03 00:20:05;;;;;;;15.73;10.75;;;;;;;;;;4966804;28;20038;-67
2022/04/03 00:22:30;;;;;;;18.77;10.52;;;;;;;;;;4964788;28;20040;-67
2022/04/03 00:24:56;;;;;;;13.93;9.85;;;;;;;;;;4964471;28;20049;-67
2022/04/03 00:27:22;;;;;;;14.05;11.25;;;;;;;;;;4964014;28;20085;-69
2022/04/03 00:29:47;;;;;;;15.20;10.85;;;;;;;;;;4969094;28;20042;-70
2022/04/03 00:32:13;;;;;;;15.10;11.23;;;;;;;;;;4964422;28;20035;-69
2022/04/03 00:34:38;;;;;;;11.00;8.82;;;;;;;;;;4964718;28;20503;-69
2022/04/03 00:37:04;;;;;;;13.60;9.75;;;;;;;;;;4966619;28;20081;-69
2022/04/03 00:39:29;;;;;;;15.07;10.27;;;;;;;;;;4963736;28;20027;-68
2022/04/03 00:41:55;;;;;;;18.05;10.82;;;;;;;;;;4964874;28;20038;-68
2022/04/03 00:44:22;;;;;;;15.63;10.30;;;;;;;;;;4964452;28;20035;-68
2022/04/03 00:46:48;;;;;;;13.20;9.88;;;;;;;;;;4964131;28;20043;-69
2022/04/03 00:49:14;;;;;;;12.32;9.70;;;;;;;;;;4963838;28;20033;-69
2022/04/03 00:51:39;;;;;;;16.10;9.82;;;;;;;;;;4964872;28;20142;-68
2022/04/03 00:54:07;;;;;;;15.70;10.25;;;;;;;;;;4964361;28;20031;-68
2022/04/03 00:56:34;;;;;;;12.55;9.40;;;;;;;;;;4964046;28;20047;-69
2022/04/03 00:58:59;;;;;;;14.80;8.98;;;;;;;;;;4964025;28;20035;-68
2022/04/03 01:01:25;;;;;;;17.83;10.27;;;;;;;;;;4962695;28;20054;-69
2022/04/03 01:03:51;;;;;;;17.88;11.20;;;;;;;;;;4964080;28;20117;-69
2022/04/03 01:06:17;;;;;;;16.80;10.43;;;;;;;;;;4963850;28;20657;-68
2022/04/03 01:08:42;;;;;;;15.23;9.88;;;;;;;;;;4963759;28;20039;-68
2022/04/03 01:11:13;;;;;;;11.85;8.93;;;;;;;;;;4963223;28;20118;-68
2022/04/03 01:13:47;;;;;;;16.02;9.85;;;;;;;;;;4963574;28;20033;-68
2022/04/03 01:16:13;;;;;;;19.38;10.57;;;;;;;;;;4960878;28;20177;-68
2022/04/03 01:18:39;;;;;;;14.38;9.30;;;;;;;;;;4963871;28;20121;-69
2022/04/03 01:21:04;;;;;;;14.80;8.20;;;;;;;;;;4963832;28;20043;-68
2022/04/03 01:23:30;;;;;;;13.40;8.85;;;;;;;;;;4962898;28;20031;-69
2022/04/03 01:25:56;;;;;;;15.68;9.93;;;;;;;;;;4963523;28;20038;-68
2022/04/03 01:28:23;;;;;;;15.23;8.85;;;;;;;;;;4963517;28;20088;-69
2022/04/03 01:30:48;;;;;;;17.38;9.57;;;;;;;;;;4963558;28;20371;-69
2022/04/03 01:33:13;;;;;;;17.35;9.50;;;;;;;;;;4962517;28;20503;-69
2022/04/03 01:35:39;;;;;;;15.43;9.73;;;;;;;;;;4963095;28;20039;-69
2022/04/03 01:38:04;;;;;;;20.48;9.57;;;;;;;;;;4963353;28;20039;-68
2022/04/03 01:40:32;;;;;;;17.00;9.18;;;;;;;;;;4963702;28;20026;-69
2022/04/03 01:42:57;;;;;;;15.18;9.82;;;;;;;;;;4962410;28;20533;-68
2022/04/03 01:45:23;;;;;;;13.20;8.85;;;;;;;;;;4961969;28;20042;-69
2022/04/03 01:47:48;;;;;;;15.55;10.35;;;;;;;;;;4963482;28;20047;-68
2022/04/03 01:50:14;;;;;;;14.85;9.95;;;;;;;;;;4963345;28;20474;-69
2022/04/03 01:52:39;;;;;;;15.02;9.70;;;;;;;;;;4963261;28;20507;-68
2022/04/03 01:55:05;;;;;;;12.63;9.13;;;;;;;;;;4967491;28;20046;-68
2022/04/03 01:57:31;;;;;;;13.60;9.52;;;;;;;;;;4962850;28;20038;-68
2022/04/03 01:59:56;;;;;;;17.30;11.07;;;;;;;;;;4962950;28;20039;-68
2022/04/03 02:02:22;;;;;;;18.38;11.10;;;;;;;;;;4962936;28;20053;-68
2022/04/03 02:04:47;;;;;;;14.25;10.43;;;;;;;;;;4962902;28;20113;-68
2022/04/03 02:07:12;;;;;;;14.55;11.10;;;;;;;;;;4962089;28;20474;-67
2022/04/03 02:09:38;;;;;;;15.65;10.10;;;;;;;;;;4962758;28;20034;-67
2022/04/03 02:12:05;;;;;;;14.85;9.88;;;;;;;;;;4963022;28;20038;-67
2022/04/03 02:14:31;;;;;;;18.42;11.68;;;;;;;;;;4961244;28;20038;-67
2022/04/03 02:16:57;;;;;;;17.20;10.05;;;;;;;;;;4961742;28;20089;-67
2022/04/03 02:19:23;;;;;;;15.18;10.57;;;;;;;;;;4970772;28;20110;-67
2022/04/03 02:21:49;;;;;;;13.60;10.13;;;;;;;;;;4962712;28;20623;-67
2022/04/03 02:24:14;;;;;;;15.55;10.30;;;;;;;;;;4962664;28;20134;-67
2022/04/03 02:26:40;;;;;;;16.30;10.68;;;;;;;;;;4962402;28;20034;-70
2022/04/03 02:29:06;;;;;;;14.32;10.02;;;;;;;;;;4961910;28;20041;-68
2022/04/03 02:31:31;;;;;;;16.05;10.60;;;;;;;;;;4962172;28;20043;-68
2022/04/03 02:33:57;;;;;;;17.75;11.60;;;;;;;;;;4962532;28;20053;-68
2022/04/03 02:36:23;;;;;;;16.77;10.32;;;;;;;;;;4962360;28;20177;-68
2022/04/03 02:38:48;;;;;;;13.00;9.38;;;;;;;;;;4961479;28;20125;-70
2022/04/03 02:41:14;;;;;;;13.20;9.50;;;;;;;;;;4968473;28;20137;-68
2022/04/03 02:43:39;;;;;;;12.88;9.35;;;;;;;;;;4962463;28;20034;-68
2022/04/03 02:46:05;;;;;;;15.35;7.68;;;;;;;;;;4962112;28;20407;-68
2022/04/03 02:48:30;;;;;;;14.52;10.13;;;;;;;;;;4962357;28;20034;-68
2022/04/03 02:50:56;;;;;;;14.10;9.85;;;;;;;;;;4961605;28;20071;-68
2022/04/03 02:53:21;;;;;;;16.75;10.73;;;;;;;;;;4968661;28;20081;-67
2022/04/03 02:55:47;;;;;;;13.00;10.15;;;;;;;;;;4960982;28;20125;-68
2022/04/03 02:58:12;;;;;;;13.18;10.23;;;;;;;;;;4962007;28;20143;-68
2022/04/03 03:00:38;;;;;;;14.50;9.40;;;;;;;;;;4961954;28;20046;-68
2022/04/03 03:03:07;;;;;;;13.32;10.77;;;;;;;;;;4964590;28;20038;-68
2022/04/03 03:05:33;;;;;;;15.95;11.18;;;;;;;;;;4961964;28;20041;-68
2022/04/03 03:07:59;;;;;;;15.27;10.73;;;;;;;;;;4962300;28;20030;-68
2022/04/03 03:10:25;;;;;;;16.25;11.70;;;;;;;;;;4960821;28;20488;-68
2022/04/03 03:12:50;;;;;;;16.83;11.05;;;;;;;;;;4959942;28;20042;-68
2022/04/03 03:15:16;;;;;;;16.88;12.23;;;;;;;;;;4959526;28;20043;-67
2022/04/03 03:17:42;;;;;;;16.48;11.05;;;;;;;;;;4961920;28;20475;-68
2022/04/03 03:20:09;;;;;;;18.00;11.65;;;;;;;;;;4960585;28;20025;-67
2022/04/03 03:22:35;;;;;;;16.40;11.27;;;;;;;;;;4961274;28;20031;-67
2022/04/03 03:25:03;;;;;;;20.13;11.73;;;;;;;;;;4961194;28;20038;-68
2022/04/03 03:27:29;;;;;;;17.40;11.95;;;;;;;;;;4965118;28;20483;-68
2022/04/03 03:29:54;;;;;;;18.70;12.13;;;;;;;;;;4965745;28;20117;-67
2022/04/03 03:32:20;;;;;;;16.13;11.95;;;;;;;;;;4979681;28;20274;-67
2022/04/03 03:34:45;;;;;;;18.13;12.10;;;;;;;;;;4964971;28;20034;-68
2022/04/03 03:37:10;;;;;;;18.77;12.07;;;;;;;;;;4965015;28;20593;-68
2022/04/03 03:39:37;;;;;;;15.00;11.18;;;;;;;;;;4965704;28;20101;-68
2022/04/03 03:42:02;;;;;;;18.60;13.48;;;;;;;;;;4965721;28;20108;-70
2022/04/03 03:44:28;;;;;;;16.80;12.18;;;;;;;;;;4964527;28;20051;-68
2022/04/03 03:46:53;;;;;;;16.70;11.50;;;;;;;;;;4965270;28;20082;-68
2022/04/03 03:49:19;;;;;;;16.65;11.75;;;;;;;;;;4965230;28;20499;-68
2022/04/03 03:51:45;;;;;;;18.90;12.85;;;;;;;;;;4965490;28;20043;-68
2022/04/03 03:54:10;;;;;;;18.13;12.68;;;;;;;;;;4965069;28;20035;-68
2022/04/03 03:56:36;;;;;;;16.90;11.77;;;;;;;;;;4964453;28;20041;-68
2022/04/03 03:59:03;;;;;;;18.55;12.00;;;;;;;;;;4965062;28;20402;-68
2022/04/03 04:01:31;;;;;;;16.88;12.15;;;;;;;;;;4965083;28;20360;-68
2022/04/03 04:03:57;;;;;;;17.90;12.38;;;;;;;;;;4965344;28;21066;-70
2022/04/03 04:06:22;;;;;;;17.52;12.52;;;;;;;;;;4964186;28;20088;-68
2022/04/03 04:08:48;;;;;;;17.95;12.15;;;;;;;;;;4963903;28;20402;-68
2022/04/03 04:11:13;;;;;;;17.38;11.70;;;;;;;;;;4964995;28;20123;-69
2022/04/03 04:13:39;;;;;;;16.27;11.55;;;;;;;;;;4965312;28;20784;-68
2022/04/03 04:16:05;;;;;;;17.08;10.90;;;;;;;;;;4964734;28;20042;-68
2022/04/03 04:18:30;;;;;;;17.35;12.18;;;;;;;;;;4964056;28;20049;-69
2022/04/03 04:20:57;;;;;;;15.90;12.10;;;;;;;;;;4964863;28;20109;-68
2022/04/03 04:23:23;;;;;;;21.05;12.85;;;;;;;;;;4964706;28;20038;-68
2022/04/03 04:25:48;;;;;;;19.58;11.70;;;;;;;;;;4964745;28;20041;-68
2022/04/03 04:28:14;;;;;;;16.02;12.25;;;;;;;;;;4963890;28;20426;-68
2022/04/03 04:30:40;;;;;;;13.38;9.73;;;;;;;;;;4963471;28;20399;-68
2022/04/03 04:33:08;;;;;;;15.90;12.38;;;;;;;;;;4964338;28;20081;-67
2022/04/03 04:35:34;;;;;;;16.92;12.23;;;;;;;;;;4963621;28;20038;-68
2022/04/03 04:38:01;;;;;;;15.98;11.90;;;;;;;;;;4964191;28;20458;-69
2022/04/03 04:40:26;;;;;;;16.40;11.85;;;;;;;;;;4970144;28;20079;-68
2022/04/03 04:42:52;;;;;;;16.02;10.55;;;;;;;;;;4963157;28;20034;-69
2022/04/03 04:45:17;;;;;;;19.25;12.18;;;;;;;;;;4964422;28;20038;-69
2022/04/03 04:47:43;;;;;;;17.13;12.52;;;;;;;;;;4964443;28;20496;-70
2022/04/03 04:50:11;;;;;;;19.73;11.82;;;;;;;;;;4963787;28;20050;-69
2022/04/03 04:52:37;;;;;;;15.55;11.00;;;;;;;;;;4963929;28;20093;-69
2022/04/03 04:55:05;;;;;;;17.33;12.00;;;;;;;;;;4964192;28;20051;-69
2022/04/03 04:57:35;;;;;;;14.80;10.80;;;;;;;;;;4963902;28;20035;-68
2022/04/03 05:00:05;;;;;;;15.65;10.30;;;;;;;;;;4964222;28;20057;-68
2022/04/03 05:02:30;;;;;;;19.70;11.25;;;;;;;;;;4963155;28;20069;-69
2022/04/03 05:04:55;;;;;;;15.77;10.88;;;;;;;;;;4967392;28;20105;-70
2022/04/03 05:07:22;;;;;;;18.33;11.70;;;;;;;;;;4963372;28;20110;-68
2022/04/03 05:09:49;;;;;;;12.77;9.30;;;;;;;;;;4963925;28;20046;-68
2022/04/03 05:12:15;;;;;;;17.38;11.43;;;;;;;;;;4963291;28;20443;-70
2022/04/03 05:14:41;;;;;;;16.38;10.98;;;;;;;;;;4963786;28;20046;-69
2022/04/03 05:17:07;;;;;;;19.52;11.35;;;;;;;;;;4963637;28;20045;-69
2022/04/03 05:19:33;;;;;;;20.67;11.30;;;;;;;;;;4964175;28;20045;-68
2022/04/03 05:21:59;;;;;;;15.63;11.10;;;;;;;;;;4963609;28;20038;-70
2022/04/03 05:24:25;;;;;;;17.02;11.93;;;;;;;;;;4963040;28;20038;-69
2022/04/03 05:26:50;;;;;;;18.40;11.02;;;;;;;;;;4963321;28;20475;-70
2022/04/03 05:29:16;;;;;;;16.73;11.18;;;;;;;;;;4963401;28;20093;-70
2022/04/03 05:31:42;;;;;;;16.42;10.30;;;;;;;;;;4963558;28;20589;-69
2022/04/03 05:34:08;;;;;;;15.60;9.52;;;;;;;;;;4962877;28;20035;-69
2022/04/03 05:36:35;;;;;;;16.38;10.90;;;;;;;;;;4963160;28;20046;-70
2022/04/03 05:39:04;;;;;;;21.45;11.98;;;;;;;;;;4961840;28;20109;-69
2022/04/03 05:41:30;;;;;;;22.08;12.07;;;;;;;;;;4963346;28;20038;-71
2022/04/03 05:43:55;;;;;;;18.45;12.20;;;;;;;;;;4962189;28;20042;-70
2022/04/03 05:46:21;;;;;;;18.23;11.30;;;;;;;;;;4962292;28;20046;-69
2022/04/03 05:48:47;;;;;;;25.05;13.75;;;;;;;;;;4963272;28;20114;-71
2022/04/03 05:51:12;;;;;;;17.27;12.02;;;;;;;;;;4963252;28;20039;-70
2022/04/03 05:53:39;;;;;;;18.27;11.23;;;;;;;;;;4972579;28;20616;-70
2022/04/03 05:56:05;;;;;;;16.60;11.82;;;;;;;;;;4963151;28;20484;-70
2022/04/03 05:58:30;;;;;;;14.57;10.65;;;;;;;;;;4962295;28;20030;-71
2022/04/03 06:00:55;;;;;;;13.98;9.68;;;;;;;;;;4963486;28;20039;-69
2022/04/03 06:03:21;;;;;;;14.10;9.95;;;;;;;;;;4963013;28;20102;-70
2022/04/03 06:05:47;;;;;;;17.02;10.38;;;;;;;;;;4970777;28;20062;-68
2022/04/03 06:08:13;;;;;;;12.25;9.25;;;;;;;;;;4960033;28;20137;-70
2022/04/03 06:10:39;;;;;;;14.35;9.77;;;;;;;;;;4961046;28;20141;-70
2022/04/03 06:13:06;;;;;;;13.10;8.88;;;;;;;;;;4960971;28;20042;-69
2022/04/03 06:15:37;;;;;;;13.85;9.30;;;;;;;;;;4960806;28;20035;-69
2022/04/03 06:18:05;;;;;;;15.13;9.68;;;;;;;;;;4961150;28;20105;-69
2022/04/03 06:20:31;;;;;;;15.20;9.57;;;;;;;;;;4961290;28;20372;-70
2022/04/03 06:22:56;;;;;;;13.00;9.50;;;;;;;;;;4960954;28;20031;-69
2022/04/03 06:25:22;;;;;;;12.20;9.50;;;;;;;;;;4962327;28;20077;-70
2022/04/03 06:27:48;;;;;;;10.88;8.48;;;;;;;;;;4961725;28;20031;-69
2022/04/03 06:30:14;;;;;;;12.48;8.93;;;;;;;;;;4960823;28;20057;-69
2022/04/03 06:32:40;;;;;;;13.55;8.95;;;;;;;;;;4968700;28;20396;-70
2022/04/03 06:35:06;;;;;;;10.52;8.40;;;;;;;;;;4965724;28;20855;-69
2022/04/03 06:37:32;;;;;;;16.45;9.15;;;;;;;;;;4961167;28;20035;-69
2022/04/03 06:39:58;;;;;;;10.60;8.30;;;;;;;;;;4961208;28;20048;-70
2022/04/03 06:42:23;;;;;;;15.95;9.15;;;;;;;;;;4960921;28;20049;-70
2022/04/03 06:44:49;;;;;;;12.05;8.95;;;;;;;;;;4958382;28;20066;-69
2022/04/03 06:47:14;;;;;;;10.38;8.05;;;;;;;;;;4959449;28;20075;-70
2022/04/03 06:49:40;;;;;;;13.57;8.15;;;;;;;;;;4959602;28;20101;-70
2022/04/03 06:52:08;;;;;;;12.63;7.78;;;;;;;;;;4959195;28;20403;-71
2022/04/03 06:54:34;;;;;;;12.15;8.73;;;;;;;;;;4959641;28;20041;-70
2022/04/03 06:56:59;;;;;;;14.52;8.68;;;;;;;;;;4960085;28;20042;-70
2022/04/03 06:59:25;;;;;;;14.95;9.13;;;;;;;;;;4962848;28;20069;-70
2022/04/03 07:01:50;;;;;;;9.18;6.95;;;;;;;;;;4967278;28;20092;-70
2022/04/03 07:04:16;;;;;;;14.05;8.75;;;;;;;;;;4967036;28;20035;-69
2022/04/03 07:06:41;;;;;;;11.40;7.78;;;;;;;;;;4967709;28;20038;-70
2022/04/03 07:09:07;;;;;;;13.85;8.88;;;;;;;;;;4968025;28;20573;-70
2022/04/03 07:11:32;;;;;;;13.13;9.63;;;;;;;;;;4967786;28;20137;-70
2022/04/03 07:13:57;;;;;;;15.75;10.82;;;;;;;;;;4967336;28;20035;-70
2022/04/03 07:16:23;;;;;;;15.55;9.88;;;;;;;;;;4966141;28;20054;-70
2022/04/03 07:18:49;;;;;;;17.40;9.98;;;;;;;;;;4967398;28;20042;-70
2022/04/03 07:21:14;;;;;;;14.32;10.70;;;;;;;;;;4967806;28;20039;-70
2022/04/03 07:23:40;;;;;;;18.10;10.75;;;;;;;;;;4968630;28;20085;-69
2022/04/03 07:26:07;;;;;;;16.65;11.43;;;;;;;;;;4964932;28;20058;-70
2022/04/03 07:28:32;;;;;;;17.52;10.85;;;;;;;;;;4964738;28;20109;-69
2022/04/03 07:30:58;;;;;;;15.55;11.70;;;;;;;;;;4967694;28;20141;-69
2022/04/03 07:33:24;;;;;;;15.80;11.60;;;;;;;;;;4974719;28;20042;-69
2022/04/03 07:35:51;;;;;;;14.27;9.77;;;;;;;;;;4967537;28;20057;-69
2022/04/03 07:38:18;;;;;;;12.35;9.63;;;;;;;;;;4967998;28;20089;-69
2022/04/03 07:40:46;;;;;;;14.00;9.20;;;;;;;;;;4968109;28;20074;-69
2022/04/03 07:43:18;;;;;;;14.23;8.82;;;;;;;;;;4968516;28;20062;-68
2022/04/03 07:45:45;;;;;;;14.32;9.95;;;;;;;;;;4966495;28;20146;-69
2022/04/03 07:48:10;;;;;;;11.43;9.00;;;;;;;;;;4967514;28;20034;-69
2022/04/03 07:50:36;;;;;;;12.15;8.57;;;;;;;;;;4968348;28;20042;-69
2022/04/03 07:53:02;;;;;;;12.98;8.32;;;;;;;;;;4968337;28;20042;-69
2022/04/03 07:55:27;;;;;;;11.80;9.45;;;;;;;;;;4968212;28;20098;-69
2022/04/03 07:57:53;;;;;;;15.95;11.38;;;;;;;;;;4967165;28;20034;-69
2022/04/03 08:00:18;;;;;;;19.10;9.70;;;;;;;;;;4968096;28;20518;-69
2022/04/03 08:02:44;;;;;;;15.15;8.43;;;;;;;;;;4973331;28;20027;-69
2022/04/03 08:05:10;;;;;;;15.10;9.23;;;;;;;;;;4968487;28;20034;-68
2022/04/03 08:07:40;;;;;;;10.55;7.10;;;;;;;;;;4967868;28;20050;-68
2022/04/03 08:10:10;;;;;;;10.00;7.78;;;;;;;;;;4973152;28;20043;-69
2022/04/03 08:12:37;;;;;;;19.27;9.50;;;;;;;;;;4965054;28;20069;-70
2022/04/03 08:15:04;;;;;;;15.32;9.30;;;;;;;;;;4965076;28;20050;-70
2022/04/03 08:17:30;;;;;;;17.63;10.45;;;;;;;;;;4964288;28;20042;-71
2022/04/03 08:19:55;;;;;;;14.60;9.45;;;;;;;;;;4964066;28;20039;-70
2022/04/03 08:22:21;;;;;;;12.27;8.88;;;;;;;;;;4964506;28;20057;-70
2022/04/03 08:24:48;;;;;;;11.88;8.85;;;;;;;;;;4964843;28;20038;-70
2022/04/03 08:27:14;;;;;;;12.48;8.85;;;;;;;;;;4964250;28;20030;-71
2022/04/03 08:29:40;;;;;;;15.95;8.63;;;;;;;;;;4964946;28;20065;-70
2022/04/03 08:32:05;;;;;;;12.75;9.18;;;;;;;;;;4962834;28;20097;-70
2022/04/03 08:34:31;;;;;;;13.07;10.57;;;;;;;;;;4964648;28;20891;-70
2022/04/03 08:36:57;;;;;;;13.75;10.02;;;;;;;;;;4964747;28;20039;-70
2022/04/03 08:39:23;;;;;;;13.77;10.07;;;;;;;;;;4964338;28;20061;-71
2022/04/03 08:41:49;;;;;;;16.92;11.68;;;;;;;;;;4963712;28;20054;-71
2022/04/03 08:44:14;;;;;;;12.60;9.85;;;;;;;;;;4964311;28;20986;-70
2022/04/03 08:46:46;;;;;;;15.23;11.32;;;;;;;;;;4964344;28;20070;-70
2022/04/03 08:49:13;;;;;;;14.45;9.70;;;;;;;;;;4964372;28;20034;-70
2022/04/03 08:51:40;;;;;;;16.10;10.73;;;;;;;;;;4963976;28;20034;-70
2022/04/03 08:54:06;;;;;;;14.32;10.02;;;;;;;;;;4963028;28;20133;-70
2022/04/03 08:56:31;;;;;;;9.13;6.80;;;;;;;;;;4964159;28;20096;-70
2022/04/03 08:58:57;;;;;;;14.88;9.80;;;;;;;;;;4964379;28;20048;-71
2022/04/03 09:01:24;;;;;;;14.77;8.73;;;;;;;;;;4964364;28;20093;-70
2022/04/03 09:03:50;;;;;;;11.13;8.30;;;;;;;;;;4963353;28;20031;-70
2022/04/03 09:06:17;;;;;;;14.68;9.32;;;;;;;;;;4963833;28;20117;-70
2022/04/03 09:08:45;;;;;;;17.35;9.82;;;;;;;;;;4963985;28;20145;-70
2022/04/03 09:11:11;;;;;;;11.32;8.23;;;;;;;;;;4962499;28;20042;-70
2022/04/03 09:13:38;;;;;;;16.90;9.38;;;;;;;;;;4963948;28;20388;-69
2022/04/03 09:16:05;;;;;;;14.95;8.25;;;;;;;;;;4961720;28;20038;-69
2022/04/03 09:18:47;;;;;;;10.38;7.93;;;;;;;;;;4963146;28;20058;-69
2022/04/03 09:21:24;;;;;;;8.30;5.53;;;;;;;;;;4963199;28;20133;-69
2022/04/03 09:24:07;;;;;;;8.90;5.45;;;;;;;;;;4962327;28;20030;-68
2022/04/03 09:26:34;;;;;;;10.65;7.45;;;;;;;;;;4959703;28;20069;-68
2022/04/03 09:29:16;;;;;;;10.32;7.85;;;;;;;;;;4962463;28;20081;-69
2022/04/03 09:31:44;;;;;;;10.70;7.15;;;;;;;;;;4962085;28;20066;-68
2022/04/03 09:34:15;;;;;;;9.10;7.70;;;;;;;;;;4962399;28;20055;-69
2022/04/03 09:36:41;;;;;;;9.75;6.68;;;;;;;;;;4959545;28;20555;-68
2022/04/03 09:39:24;;;;;;;11.02;8.07;;;;;;;;;;4962369;28;20045;-69
2022/04/03 09:41:58;;;;;;;12.27;8.07;;;;;;;;;;4961851;28;20104;-68
2022/04/03 09:44:42;;;;;;;14.18;9.02;;;;;;;;;;4961970;28;20035;-68
2022/04/03 09:47:26;;;;;;;10.07;7.85;;;;;;;;;;4961273;28;20066;-68
2022/04/03 09:50:01;;;;;;;15.15;8.90;;;;;;;;;;4961970;28;20835;-68
2022/04/03 09:52:33;;;;;;;16.83;9.80;;;;;;;;;;4960931;28;20035;-70
2022/04/03 09:54:59;;;;;;;17.00;9.85;;;;;;;;;;4961807;28;20089;-67
2022/04/03 09:57:25;;;;;;;20.48;10.63;;;;;;;;;;4961642;28;20042;-70
2022/04/03 09:59:54;;;;;;;8.73;7.13;;;;;;;;;;4972732;28;20045;-68
2022/04/03 10:02:24;;;;;;;6.82;5.10;;;;;;;;;;4961653;28;20132;-68
2022/04/03 10:04:51;;;;;;;7.75;6.15;;;;;;;;;;4960112;28;20066;-68
2022/04/03 10:07:17;;;;;;;9.32;4.78;;;;;;;;;;4943406;28;20501;-68
2022/04/03 10:09:47;;;;;;;16.38;8.45;;;;;;;;;;4960823;28;20042;-68
2022/04/03 10:12:18;;;;;;;15.52;8.30;;;;;;;;;;4960696;28;20038;-69
2022/04/03 10:14:45;;;;;;;8.82;7.07;;;;;;;;;;4961286;28;20042;-69
2022/04/03 10:17:11;;;;;;;11.10;8.25;;;;;;;;;;4961353;28;20177;-69
2022/04/03 10:19:37;;;;;;;9.75;7.97;;;;;;;;;;4961352;28;20085;-69
2022/04/03 10:22:08;;;;;;;16.10;8.05;;;;;;;;;;4961161;28;20066;-69
2022/04/03 10:24:36;;;;;;;7.25;6.15;;;;;;;;;;4961054;28;20034;-68
2022/04/03 10:27:10;;;;;;;15.30;9.00;;;;;;;;;;4962249;28;20067;-68
2022/04/03 10:29:38;;;;;;;11.38;7.82;;;;;;;;;;4962143;28;20030;-68
2022/04/03 10:32:04;;;;;;;13.20;8.68;;;;;;;;;;4961978;28;20034;-68
2022/04/03 10:34:32;;;;;;;18.52;8.50;;;;;;;;;;4961451;28;20619;-68
2022/04/03 10:36:57;;;;;;;14.73;9.48;;;;;;;;;;4966062;28;20034;-68
2022/04/03 10:39:26;;;;;;;15.15;8.27;;;;;;;;;;4961914;28;20037;-68
2022/04/03 10:42:24;;;;;;;10.20;7.30;;;;;;;;;;4962632;28;20504;-67
2022/04/03 10:45:11;;;;;;;8.30;6.68;;;;;;;;;;4959608;28;20509;-68
2022/04/03 10:47:44;;;;;;;12.32;7.75;;;;;;;;;;4957506;28;20050;-68
2022/04/03 10:50:20;;;;;;;11.80;7.75;;;;;;;;;;4958986;28;20038;-68
2022/04/03 10:52:46;;;;;;;10.88;6.90;;;;;;;;;;4958941;28;20038;-69
2022/04/03 10:55:12;;;;;;;13.75;8.60;;;;;;;;;;4958824;28;20042;-68
2022/04/03 10:57:46;;;;;;;11.80;6.72;;;;;;;;;;4959720;28;20031;-68
2022/04/03 11:00:12;;;;;;;6.90;5.95;;;;;;;;;;4960864;28;20491;-67
2022/04/03 11:02:57;;;;;;;9.30;6.03;;;;;;;;;;4958697;28;20046;-67
2022/04/03 11:05:26;;;;;;;10.80;6.53;;;;;;;;;;4929853;28;20499;-69
2022/04/03 11:08:01;;;;;;;6.32;5.50;;;;;;;;;;4959289;28;20122;-68
2022/04/03 11:10:55;;;;;;;10.27;7.00;;;;;;;;;;4960065;28;20050;-68
2022/04/03 11:13:29;;;;;;;11.13;7.88;;;;;;;;;;4960695;28;20034;-68
2022/04/03 11:16:05;;;;;;;16.70;8.45;;;;;;;;;;4959563;28;20056;-68
2022/04/03 11:18:39;;;;;;;9.40;7.10;;;;;;;;;;4959932;28;20089;-69
2022/04/03 11:21:30;;;;;;;9.30;7.28;;;;;;;;;;4958341;28;20034;-68
2022/04/03 11:24:01;;;;;;;11.15;7.10;;;;;;;;;;4959230;28;20138;-68
2022/04/03 11:26:26;;;;;;;12.02;7.72;;;;;;;;;;4959051;28;20070;-68
2022/04/03 11:28:52;;;;;;;12.95;7.97;;;;;;;;;;4960134;28;20145;-68
2022/04/03 11:31:18;;;;;;;10.52;7.63;;;;;;;;;;4959964;28;20062;-68
2022/04/03 11:33:46;;;;;;;12.38;7.43;;;;;;;;;;4960069;28;20035;-68
2022/04/03 11:36:12;;;;;;;10.88;6.10;;;;;;;;;;4959594;28;20194;-68
2022/04/03 11:38:40;;;;;;;12.10;6.88;;;;;;;;;;4958960;28;20042;-68
2022/04/03 11:41:10;;;;;;;10.00;7.18;;;;;;;;;;4959843;28;20038;-68
2022/04/03 11:43:36;;;;;;;9.75;7.10;;;;;;;;;;4959974;28;20035;-69
2022/04/03 11:46:03;;;;;;;12.77;7.10;;;;;;;;;;4961739;28;20042;-68
2022/04/03 11:48:31;;;;;;;8.05;6.47;;;;;;;;;;4962816;28;20046;-68
2022/04/03 11:51:05;;;;;;;15.98;8.82;;;;;;;;;;4963328;28;20042;-68
2022/04/03 11:53:30;;;;;;;8.93;6.88;;;;;;;;;;4963045;28;20082;-68
2022/04/03 11:55:56;;;;;;;10.52;6.60;;;;;;;;;;4962054;28;20892;-68
2022/04/03 11:58:33;;;;;;;8.98;5.65;;;;;;;;;;4963396;28;20038;-68
2022/04/03 12:00:58;;;;;;;7.43;6.30;;;;;;;;;;4961858;28;20085;-68
2022/04/03 12:03:26;;;;;;;8.45;6.60;;;;;;;;;;4963137;28;20428;-68
2022/04/03 12:05:51;;;;;;;7.13;5.15;;;;;;;;;;4962865;28;20097;-68
2022/04/03 12:08:17;;;;;;;5.78;5.18;;;;;;;;;;4962689;28;20046;-69
2022/04/03 12:10:42;;;;;;;11.73;5.40;;;;;;;;;;4948139;28;20038;-68
2022/04/03 12:13:16;;;;;;;6.75;5.20;;;;;;;;;;4963206;28;20043;-68
2022/04/03 12:15:42;;;;;;;6.93;5.28;;;;;;;;;;4962937;28;20119;-69
2022/04/03 12:18:08;;;;;;;9.38;6.10;;;;;;;;;;4962680;28;20054;-69
2022/04/03 12:20:35;;;;;;;8.80;5.40;;;;;;;;;;4962928;28;20118;-68
2022/04/03 12:23:01;;;;;;;8.27;6.65;;;;;;;;;;4961107;28;20078;-68
2022/04/03 12:25:26;;;;;;;9.38;6.70;;;;;;;;;;4962614;28;20065;-70
2022/04/03 12:27:52;;;;;;;5.88;5.28;;;;;;;;;;4962315;28;20037;-69
2022/04/03 12:30:18;;;;;;;7.88;6.20;;;;;;;;;;4963804;28;20491;-68
2022/04/03 12:32:44;;;;;;;8.85;5.63;;;;;;;;;;4963598;28;20019;-69
2022/04/03 12:35:11;;;;;;;11.20;6.35;;;;;;;;;;4963972;28;20046;-70
2022/04/03 12:37:42;;;;;;;6.40;5.63;;;;;;;;;;4962762;28;20038;-68
2022/04/03 12:40:12;;;;;;;6.00;4.60;;;;;;;;;;4962769;28;20030;-69
2022/04/03 12:42:42;;;;;;;5.22;4.72;;;;;;;;;;4962160;28;20046;-68
2022/04/03 12:45:16;;;;;;;5.60;4.05;;;;;;;;;;4963391;28;20092;-66
2022/04/03 12:47:46;;;;;;;7.13;5.13;;;;;;;;;;4963376;28;20109;-67
2022/04/03 12:50:15;;;;;;;9.40;4.50;;;;;;;;;;4963912;28;20082;-69
2022/04/03 12:52:54;;;;;;;6.28;4.72;;;;;;;;;;4962909;28;20030;-68
2022/04/03 13:00:42;;;;;;;8.05;5.38;;;;;;;;;;4962395;28;20039;-69
2022/04/03 13:03:07;;;;;;;7.80;4.38;;;;;;;;;;4963884;28;20357;-69
2022/04/03 13:05:33;;;;;;;9.77;5.55;;;;;;;;;;4960589;28;20483;-68
2022/04/03 13:08:09;;;;;;;9.07;4.90;;;;;;;;;;4960354;28;20046;-69
2022/04/03 13:10:49;;;;;;;6.22;4.70;;;;;;;;;;4977635;28;20030;-68
2022/04/03 13:13:26;;;;;;;6.72;4.40;;;;;;;;;;4963479;28;20039;-68
2022/04/03 13:15:53;;;;;;;4.80;4.35;;;;;;;;;;4962254;28;20038;-67
2022/04/03 13:18:19;;;;;;;5.95;4.30;;;;;;;;;;4960955;28;20039;-68
2022/04/03 13:20:53;;;;;;;11.50;6.75;;;;;;;;;;4962361;28;20038;-68
2022/04/03 13:23:20;;;;;;;4.30;3.90;;;;;;;;;;4963545;28;20046;-68
2022/04/03 13:25:46;;;;;;;8.73;4.85;;;;;;;;;;4963759;28;20109;-68
2022/04/03 13:28:12;;;;;;;5.18;4.30;;;;;;;;;;4962472;28;20039;-68
2022/04/03 13:30:38;;;;;;;4.97;3.92;;;;;;;;;;4963380;28;20447;-68
2022/04/03 13:33:03;;;;;;;5.15;3.22;;;;;;;;;;4963494;28;20038;-68
2022/04/03 13:35:29;;;;;;;4.28;3.72;;;;;;;;;;4963524;28;20408;-68
2022/04/03 13:37:55;;;;;;;5.80;3.90;;;;;;;;;;4963442;28;20760;-68
2022/04/03 13:40:20;;;;;;;4.40;3.58;;;;;;;;;;4962838;28;20061;-71
2022/04/03 13:42:46;;;;;;;8.23;4.30;;;;;;;;;;4963502;28;20472;-67
2022/04/03 13:45:12;;;;;;;5.38;3.83;;;;;;;;;;4961142;28;20043;-67
2022/04/03 13:47:37;;;;;;;3.60;3.03;;;;;;;;;;4961292;28;20082;-68
2022/04/03 13:50:03;;;;;;;4.72;3.35;;;;;;;;;;4960363;28;20049;-68
2022/04/03 13:52:29;;;;;;;4.78;3.35;;;;;;;;;;4960715;28;20058;-69
2022/04/03 13:54:57;;;;;;;3.67;3.38;;;;;;;;;;4960804;28;20113;-68
2022/04/03 13:57:24;;;;;;;4.32;3.42;;;;;;;;;;4962179;28;20066;-68
2022/04/03 13:59:50;;;;;;;6.50;3.40;;;;;;;;;;4963176;28;20499;-68
2022/04/03 14:02:17;;;;;;;6.40;3.63;;;;;;;;;;4962507;28;20125;-67
2022/04/03 14:04:43;;;;;;;3.55;2.72;;;;;;;;;;4963209;28;20030;-67
2022/04/03 14:07:08;;;;;;;5.00;3.83;;;;;;;;;;4959034;28;20037;-67
2022/04/03 14:09:34;;;;;;;4.65;3.55;;;;;;;;;;4960055;28;20078;-68
2022/04/03 14:11:59;;;;;;;4.40;2.92;;;;;;;;;;4960375;28;20137;-69
2022/04/03 14:14:25;;;;;;;3.55;3.17;;;;;;;;;;4961056;28;20053;-68
2022/04/03 14:16:50;;;;;;;3.58;3.10;;;;;;;;;;4960538;28;20042;-69
2022/04/03 14:19:16;;;;;;;6.43;3.83;;;;;;;;;;4960688;28;20615;-68
2022/04/03 14:21:41;;;;;;;4.22;3.45;;;;;;;;;;4961555;28;20484;-69
2022/04/03 14:24:08;;;;;;;4.03;3.70;;;;;;;;;;4961348;28;20057;-68
2022/04/03 14:26:34;;;;;;;3.58;3.28;;;;;;;;;;4962135;28;20070;-68
2022/04/03 14:28:59;;;;;;;4.47;3.40;;;;;;;;;;4961413;28;20140;-67
2022/04/03 14:31:25;;;;;;;5.28;3.72;;;;;;;;;;4961895;28;20046;-68
2022/04/03 14:33:52;;;;;;;4.15;3.40;;;;;;;;;;4963438;28;20471;-68